sensor_id;sensor_type;location;lat;lon;timestamp;P1;durP1;ratioP1;P2;durP2;ratioP2
19758;SDS011;10038;42.662;23.278;2023-07-20T00:02:26;10.10;;;3.20;;
19758;SDS011;10038;42.662;23.278;2023-07-20T00:04:53;12.40;;;2.40;;
19758;SDS011;10038;42.662;23.278;2023-07-20T00:07:19;6.10;;;2.60;;
19758;SDS011;10038;42.662;23.278;2023-07-20T00:09:46;6.07;;;2.90;;
19758;SDS011;10038;42.662;23.278;2023-07-20T00:12:13;5.33;;;2.53;;
19758;SDS011;10038;42.662;23.278;2023-07-20T00:14:40;8.20;;;2.60;;
19758;SDS011;10038;42.662;23.278;2023-07-20T00:17:08;2.80;;;2.30;;
19758;SDS011;10038;42.662;23.278;2023-07-20T00:19:34;4.70;;;2.60;;
19758;SDS011;10038;42.662;23.278;2023-07-20T00:22:01;6.60;;;2.70;;
19758;SDS011;10038;42.662;23.278;2023-07-20T00:24:30;8.03;;;2.67;;
19758;SDS011;10038;42.662;23.278;2023-07-20T00:26:57;4.90;;;1.93;;
19758;SDS011;10038;42.662;23.278;2023-07-20T00:29:24;6.27;;;2.13;;
19758;SDS011;10038;42.662;23.278;2023-07-20T00:31:50;7.77;;;3.30;;
19758;SDS011;10038;42.662;23.278;2023-07-20T00:34:18;5.60;;;3.07;;
19758;SDS011;10038;42.662;23.278;2023-07-20T00:36:45;6.70;;;2.33;;
19758;SDS011;10038;42.662;23.278;2023-07-20T00:39:14;7.07;;;2.80;;
19758;SDS011;10038;42.662;23.278;2023-07-20T00:41:40;3.60;;;2.47;;
19758;SDS011;10038;42.662;23.278;2023-07-20T00:44:07;3.00;;;2.10;;
19758;SDS011;10038;42.662;23.278;2023-07-20T00:46:34;4.80;;;2.30;;
19758;SDS011;10038;42.662;23.278;2023-07-20T00:49:00;6.77;;;2.73;;
19758;SDS011;10038;42.662;23.278;2023-07-20T00:51:29;5.70;;;2.77;;
19758;SDS011;10038;42.662;23.278;2023-07-20T00:53:56;6.47;;;2.47;;
19758;SDS011;10038;42.662;23.278;2023-07-20T00:56:22;4.40;;;2.13;;
19758;SDS011;10038;42.662;23.278;2023-07-20T00:58:49;7.47;;;2.60;;
19758;SDS011;10038;42.662;23.278;2023-07-20T01:01:16;4.60;;;2.23;;
19758;SDS011;10038;42.662;23.278;2023-07-20T01:03:42;11.03;;;2.97;;
19758;SDS011;10038;42.662;23.278;2023-07-20T01:06:11;7.73;;;2.57;;
19758;SDS011;10038;42.662;23.278;2023-07-20T01:08:43;4.13;;;2.40;;
19758;SDS011;10038;42.662;23.278;2023-07-20T01:11:12;6.03;;;2.50;;
19758;SDS011;10038;42.662;23.278;2023-07-20T01:13:40;5.50;;;3.20;;
19758;SDS011;10038;42.662;23.278;2023-07-20T01:16:07;4.30;;;2.30;;
19758;SDS011;10038;42.662;23.278;2023-07-20T01:18:34;6.23;;;2.97;;
19758;SDS011;10038;42.662;23.278;2023-07-20T01:21:03;10.50;;;2.93;;
19758;SDS011;10038;42.662;23.278;2023-07-20T01:23:46;13.87;;;2.90;;
19758;SDS011;10038;42.662;23.278;2023-07-20T01:26:22;3.17;;;2.40;;
19758;SDS011;10038;42.662;23.278;2023-07-20T01:31:36;5.70;;;2.80;;
19758;SDS011;10038;42.662;23.278;2023-07-20T01:34:04;9.80;;;3.27;;
19758;SDS011;10038;42.662;23.278;2023-07-20T01:36:33;5.90;;;2.97;;
19758;SDS011;10038;42.662;23.278;2023-07-20T01:39:00;4.77;;;3.30;;
19758;SDS011;10038;42.662;23.278;2023-07-20T01:41:27;6.70;;;2.97;;
19758;SDS011;10038;42.662;23.278;2023-07-20T01:43:57;5.77;;;2.80;;
19758;SDS011;10038;42.662;23.278;2023-07-20T01:46:23;7.33;;;2.73;;
19758;SDS011;10038;42.662;23.278;2023-07-20T01:48:51;5.90;;;3.20;;
19758;SDS011;10038;42.662;23.278;2023-07-20T01:51:18;8.30;;;3.20;;
19758;SDS011;10038;42.662;23.278;2023-07-20T01:53:45;5.77;;;3.00;;
19758;SDS011;10038;42.662;23.278;2023-07-20T01:56:11;7.53;;;3.10;;
19758;SDS011;10038;42.662;23.278;2023-07-20T01:58:38;6.57;;;2.73;;
19758;SDS011;10038;42.662;23.278;2023-07-20T02:01:05;10.33;;;3.60;;
19758;SDS011;10038;42.662;23.278;2023-07-20T02:03:31;10.13;;;3.70;;
19758;SDS011;10038;42.662;23.278;2023-07-20T02:05:59;4.43;;;2.60;;
19758;SDS011;10038;42.662;23.278;2023-07-20T02:08:26;13.43;;;3.83;;
19758;SDS011;10038;42.662;23.278;2023-07-20T02:10:52;12.63;;;2.83;;
19758;SDS011;10038;42.662;23.278;2023-07-20T02:13:19;6.10;;;2.87;;
19758;SDS011;10038;42.662;23.278;2023-07-20T02:15:46;5.83;;;2.57;;
19758;SDS011;10038;42.662;23.278;2023-07-20T02:18:14;10.13;;;3.17;;
19758;SDS011;10038;42.662;23.278;2023-07-20T02:20:41;4.67;;;2.53;;
19758;SDS011;10038;42.662;23.278;2023-07-20T02:23:09;7.13;;;2.77;;
19758;SDS011;10038;42.662;23.278;2023-07-20T02:25:36;4.63;;;2.70;;
19758;SDS011;10038;42.662;23.278;2023-07-20T02:28:03;11.33;;;3.20;;
19758;SDS011;10038;42.662;23.278;2023-07-20T02:30:30;6.33;;;3.40;;
19758;SDS011;10038;42.662;23.278;2023-07-20T02:32:57;7.33;;;3.30;;
19758;SDS011;10038;42.662;23.278;2023-07-20T02:35:23;7.50;;;3.67;;
19758;SDS011;10038;42.662;23.278;2023-07-20T02:37:51;7.20;;;2.67;;
19758;SDS011;10038;42.662;23.278;2023-07-20T02:40:19;3.80;;;2.67;;
19758;SDS011;10038;42.662;23.278;2023-07-20T02:42:46;9.80;;;3.23;;
19758;SDS011;10038;42.662;23.278;2023-07-20T02:45:13;9.33;;;2.70;;
19758;SDS011;10038;42.662;23.278;2023-07-20T02:47:40;8.33;;;3.30;;
19758;SDS011;10038;42.662;23.278;2023-07-20T02:50:07;7.00;;;3.43;;
19758;SDS011;10038;42.662;23.278;2023-07-20T02:52:34;7.17;;;4.63;;
19758;SDS011;10038;42.662;23.278;2023-07-20T02:55:00;8.33;;;3.23;;
19758;SDS011;10038;42.662;23.278;2023-07-20T02:57:28;4.00;;;2.73;;
19758;SDS011;10038;42.662;23.278;2023-07-20T02:59:55;7.20;;;3.20;;
19758;SDS011;10038;42.662;23.278;2023-07-20T03:02:21;9.10;;;3.23;;
19758;SDS011;10038;42.662;23.278;2023-07-20T03:04:48;6.03;;;3.17;;
19758;SDS011;10038;42.662;23.278;2023-07-20T03:07:15;11.83;;;3.40;;
19758;SDS011;10038;42.662;23.278;2023-07-20T03:09:41;10.20;;;4.10;;
19758;SDS011;10038;42.662;23.278;2023-07-20T03:12:08;6.70;;;3.47;;
19758;SDS011;10038;42.662;23.278;2023-07-20T03:14:36;11.10;;;3.50;;
19758;SDS011;10038;42.662;23.278;2023-07-20T03:17:03;9.83;;;3.10;;
19758;SDS011;10038;42.662;23.278;2023-07-20T03:19:30;7.70;;;4.07;;
19758;SDS011;10038;42.662;23.278;2023-07-20T03:21:57;5.67;;;3.27;;
19758;SDS011;10038;42.662;23.278;2023-07-20T03:24:24;9.73;;;3.70;;
19758;SDS011;10038;42.662;23.278;2023-07-20T03:26:50;5.10;;;3.10;;
19758;SDS011;10038;42.662;23.278;2023-07-20T03:29:17;5.63;;;3.17;;
19758;SDS011;10038;42.662;23.278;2023-07-20T03:31:45;9.97;;;3.40;;
19758;SDS011;10038;42.662;23.278;2023-07-20T03:34:11;3.87;;;3.10;;
19758;SDS011;10038;42.662;23.278;2023-07-20T03:36:38;10.53;;;4.07;;
19758;SDS011;10038;42.662;23.278;2023-07-20T03:39:05;7.80;;;3.90;;
19758;SDS011;10038;42.662;23.278;2023-07-20T03:41:31;12.33;;;4.27;;
19758;SDS011;10038;42.662;23.278;2023-07-20T03:43:58;12.50;;;4.50;;
19758;SDS011;10038;42.662;23.278;2023-07-20T03:46:25;6.87;;;3.13;;
19758;SDS011;10038;42.662;23.278;2023-07-20T03:48:53;7.43;;;3.87;;
19758;SDS011;10038;42.662;23.278;2023-07-20T03:51:19;9.23;;;4.70;;
19758;SDS011;10038;42.662;23.278;2023-07-20T03:53:46;7.90;;;3.27;;
19758;SDS011;10038;42.662;23.278;2023-07-20T03:56:12;7.60;;;4.30;;
19758;SDS011;10038;42.662;23.278;2023-07-20T03:58:39;9.30;;;3.50;;
19758;SDS011;10038;42.662;23.278;2023-07-20T04:01:06;9.30;;;3.53;;
19758;SDS011;10038;42.662;23.278;2023-07-20T04:03:33;11.93;;;3.80;;
19758;SDS011;10038;42.662;23.278;2023-07-20T04:06:02;13.90;;;4.90;;
19758;SDS011;10038;42.662;23.278;2023-07-20T04:08:28;12.03;;;5.33;;
19758;SDS011;10038;42.662;23.278;2023-07-20T04:10:55;9.07;;;4.83;;
19758;SDS011;10038;42.662;23.278;2023-07-20T04:13:22;8.57;;;3.90;;
19758;SDS011;10038;42.662;23.278;2023-07-20T04:15:48;6.47;;;3.33;;
19758;SDS011;10038;42.662;23.278;2023-07-20T04:18:15;6.27;;;3.43;;
19758;SDS011;10038;42.662;23.278;2023-07-20T04:20:42;7.50;;;3.63;;
19758;SDS011;10038;42.662;23.278;2023-07-20T04:23:10;8.63;;;3.10;;
19758;SDS011;10038;42.662;23.278;2023-07-20T04:25:38;7.50;;;3.20;;
19758;SDS011;10038;42.662;23.278;2023-07-20T04:28:05;7.43;;;3.50;;
19758;SDS011;10038;42.662;23.278;2023-07-20T04:30:35;6.73;;;3.43;;
19758;SDS011;10038;42.662;23.278;2023-07-20T04:33:02;5.33;;;3.10;;
19758;SDS011;10038;42.662;23.278;2023-07-20T04:35:48;4.40;;;2.80;;
19758;SDS011;10038;42.662;23.278;2023-07-20T04:38:16;5.03;;;4.17;;
19758;SDS011;10038;42.662;23.278;2023-07-20T04:40:43;4.23;;;2.97;;
19758;SDS011;10038;42.662;23.278;2023-07-20T04:43:13;6.40;;;3.60;;
19758;SDS011;10038;42.662;23.278;2023-07-20T04:45:40;9.30;;;4.03;;
19758;SDS011;10038;42.662;23.278;2023-07-20T04:48:08;10.23;;;3.30;;
19758;SDS011;10038;42.662;23.278;2023-07-20T04:50:35;7.70;;;3.30;;
19758;SDS011;10038;42.662;23.278;2023-07-20T04:53:01;8.77;;;3.20;;
19758;SDS011;10038;42.662;23.278;2023-07-20T04:55:29;3.33;;;3.00;;
19758;SDS011;10038;42.662;23.278;2023-07-20T04:57:58;7.20;;;4.20;;
19758;SDS011;10038;42.662;23.278;2023-07-20T05:00:25;6.27;;;2.87;;
19758;SDS011;10038;42.662;23.278;2023-07-20T05:02:52;8.20;;;3.70;;
19758;SDS011;10038;42.662;23.278;2023-07-20T05:05:18;7.97;;;4.50;;
19758;SDS011;10038;42.662;23.278;2023-07-20T05:07:45;7.40;;;4.00;;
19758;SDS011;10038;42.662;23.278;2023-07-20T05:10:11;6.90;;;3.37;;
19758;SDS011;10038;42.662;23.278;2023-07-20T05:12:39;16.83;;;3.67;;
19758;SDS011;10038;42.662;23.278;2023-07-20T05:15:06;7.93;;;3.77;;
19758;SDS011;10038;42.662;23.278;2023-07-20T05:17:33;7.30;;;3.57;;
19758;SDS011;10038;42.662;23.278;2023-07-20T05:20:00;6.60;;;4.20;;
19758;SDS011;10038;42.662;23.278;2023-07-20T05:22:26;13.10;;;3.50;;
19758;SDS011;10038;42.662;23.278;2023-07-20T05:24:53;5.23;;;3.30;;
19758;SDS011;10038;42.662;23.278;2023-07-20T05:27:20;3.90;;;3.50;;
19758;SDS011;10038;42.662;23.278;2023-07-20T05:29:49;7.10;;;3.87;;
19758;SDS011;10038;42.662;23.278;2023-07-20T05:32:15;7.17;;;3.20;;
19758;SDS011;10038;42.662;23.278;2023-07-20T05:34:42;4.70;;;3.77;;
19758;SDS011;10038;42.662;23.278;2023-07-20T05:37:13;5.90;;;3.37;;
19758;SDS011;10038;42.662;23.278;2023-07-20T05:39:39;8.77;;;3.37;;
19758;SDS011;10038;42.662;23.278;2023-07-20T05:42:06;9.00;;;3.30;;
19758;SDS011;10038;42.662;23.278;2023-07-20T05:44:33;10.80;;;4.00;;
19758;SDS011;10038;42.662;23.278;2023-07-20T05:47:01;8.83;;;3.27;;
19758;SDS011;10038;42.662;23.278;2023-07-20T05:49:29;8.50;;;3.17;;
19758;SDS011;10038;42.662;23.278;2023-07-20T05:51:55;7.67;;;3.30;;
19758;SDS011;10038;42.662;23.278;2023-07-20T05:54:23;11.80;;;3.53;;
19758;SDS011;10038;42.662;23.278;2023-07-20T05:56:50;8.30;;;3.20;;
19758;SDS011;10038;42.662;23.278;2023-07-20T05:59:17;7.63;;;2.93;;
19758;SDS011;10038;42.662;23.278;2023-07-20T06:01:44;4.33;;;2.67;;
19758;SDS011;10038;42.662;23.278;2023-07-20T06:04:13;10.63;;;3.53;;
19758;SDS011;10038;42.662;23.278;2023-07-20T06:06:40;6.07;;;3.37;;
19758;SDS011;10038;42.662;23.278;2023-07-20T06:09:07;7.13;;;3.00;;
19758;SDS011;10038;42.662;23.278;2023-07-20T06:11:37;6.13;;;3.10;;
19758;SDS011;10038;42.662;23.278;2023-07-20T06:14:03;5.27;;;2.63;;
19758;SDS011;10038;42.662;23.278;2023-07-20T06:16:30;4.60;;;3.70;;
19758;SDS011;10038;42.662;23.278;2023-07-20T06:18:57;5.23;;;2.63;;
19758;SDS011;10038;42.662;23.278;2023-07-20T06:21:25;6.80;;;3.00;;
19758;SDS011;10038;42.662;23.278;2023-07-20T06:23:51;5.73;;;3.13;;
19758;SDS011;10038;42.662;23.278;2023-07-20T06:26:18;8.37;;;3.37;;
19758;SDS011;10038;42.662;23.278;2023-07-20T06:28:46;4.70;;;2.60;;
19758;SDS011;10038;42.662;23.278;2023-07-20T06:31:12;9.03;;;3.90;;
19758;SDS011;10038;42.662;23.278;2023-07-20T06:33:39;6.17;;;3.63;;
19758;SDS011;10038;42.662;23.278;2023-07-20T06:36:06;9.53;;;3.43;;
19758;SDS011;10038;42.662;23.278;2023-07-20T06:38:34;5.50;;;3.60;;
19758;SDS011;10038;42.662;23.278;2023-07-20T06:41:01;6.70;;;3.70;;
19758;SDS011;10038;42.662;23.278;2023-07-20T06:43:28;5.60;;;3.10;;
19758;SDS011;10038;42.662;23.278;2023-07-20T06:45:54;6.97;;;3.00;;
19758;SDS011;10038;42.662;23.278;2023-07-20T06:48:21;6.63;;;3.27;;
19758;SDS011;10038;42.662;23.278;2023-07-20T06:50:48;9.17;;;4.23;;
19758;SDS011;10038;42.662;23.278;2023-07-20T06:53:14;8.37;;;4.20;;
19758;SDS011;10038;42.662;23.278;2023-07-20T06:55:44;7.77;;;4.07;;
19758;SDS011;10038;42.662;23.278;2023-07-20T06:58:11;6.27;;;2.87;;
19758;SDS011;10038;42.662;23.278;2023-07-20T07:00:38;8.43;;;3.03;;
19758;SDS011;10038;42.662;23.278;2023-07-20T07:03:04;7.70;;;3.60;;
19758;SDS011;10038;42.662;23.278;2023-07-20T07:05:35;8.53;;;3.40;;
19758;SDS011;10038;42.662;23.278;2023-07-20T07:08:02;6.43;;;3.80;;
19758;SDS011;10038;42.662;23.278;2023-07-20T07:10:29;14.90;;;4.00;;
19758;SDS011;10038;42.662;23.278;2023-07-20T07:12:57;11.13;;;3.70;;
19758;SDS011;10038;42.662;23.278;2023-07-20T07:15:25;6.63;;;3.90;;
19758;SDS011;10038;42.662;23.278;2023-07-20T07:17:52;9.63;;;4.20;;
19758;SDS011;10038;42.662;23.278;2023-07-20T07:20:19;10.83;;;3.73;;
19758;SDS011;10038;42.662;23.278;2023-07-20T07:22:46;6.20;;;4.13;;
19758;SDS011;10038;42.662;23.278;2023-07-20T07:25:13;10.20;;;3.60;;
19758;SDS011;10038;42.662;23.278;2023-07-20T07:27:40;10.77;;;4.23;;
19758;SDS011;10038;42.662;23.278;2023-07-20T07:30:09;13.60;;;4.20;;
19758;SDS011;10038;42.662;23.278;2023-07-20T07:32:36;9.93;;;3.93;;
19758;SDS011;10038;42.662;23.278;2023-07-20T07:35:02;10.60;;;4.60;;
19758;SDS011;10038;42.662;23.278;2023-07-20T07:37:29;10.73;;;4.00;;
19758;SDS011;10038;42.662;23.278;2023-07-20T07:39:56;7.67;;;3.77;;
19758;SDS011;10038;42.662;23.278;2023-07-20T07:42:23;12.17;;;4.20;;
19758;SDS011;10038;42.662;23.278;2023-07-20T07:44:50;10.10;;;3.80;;
19758;SDS011;10038;42.662;23.278;2023-07-20T07:47:18;8.80;;;3.87;;
19758;SDS011;10038;42.662;23.278;2023-07-20T07:49:44;11.03;;;3.60;;
19758;SDS011;10038;42.662;23.278;2023-07-20T07:52:11;8.17;;;4.10;;
19758;SDS011;10038;42.662;23.278;2023-07-20T07:54:39;11.60;;;3.60;;
19758;SDS011;10038;42.662;23.278;2023-07-20T07:57:06;8.37;;;4.10;;
19758;SDS011;10038;42.662;23.278;2023-07-20T07:59:32;7.83;;;3.57;;
19758;SDS011;10038;42.662;23.278;2023-07-20T08:02:02;9.40;;;4.30;;
19758;SDS011;10038;42.662;23.278;2023-07-20T08:04:30;7.90;;;3.57;;
19758;SDS011;10038;42.662;23.278;2023-07-20T08:06:56;16.17;;;5.20;;
19758;SDS011;10038;42.662;23.278;2023-07-20T08:09:24;14.03;;;3.80;;
19758;SDS011;10038;42.662;23.278;2023-07-20T08:11:50;9.10;;;3.90;;
19758;SDS011;10038;42.662;23.278;2023-07-20T08:14:17;11.63;;;4.77;;
19758;SDS011;10038;42.662;23.278;2023-07-20T08:16:44;6.70;;;4.63;;
19758;SDS011;10038;42.662;23.278;2023-07-20T08:19:11;8.83;;;3.50;;
19758;SDS011;10038;42.662;23.278;2023-07-20T08:21:39;9.63;;;3.87;;
19758;SDS011;10038;42.662;23.278;2023-07-20T08:24:06;5.20;;;3.33;;
19758;SDS011;10038;42.662;23.278;2023-07-20T08:26:32;5.73;;;2.30;;
19758;SDS011;10038;42.662;23.278;2023-07-20T08:28:59;7.17;;;2.53;;
19758;SDS011;10038;42.662;23.278;2023-07-20T08:31:26;7.00;;;2.83;;
19758;SDS011;10038;42.662;23.278;2023-07-20T08:33:53;4.00;;;2.70;;
19758;SDS011;10038;42.662;23.278;2023-07-20T08:36:22;6.47;;;2.53;;
19758;SDS011;10038;42.662;23.278;2023-07-20T08:38:50;9.63;;;3.30;;
19758;SDS011;10038;42.662;23.278;2023-07-20T08:41:17;4.40;;;2.57;;
19758;SDS011;10038;42.662;23.278;2023-07-20T08:43:43;8.73;;;2.73;;
19758;SDS011;10038;42.662;23.278;2023-07-20T08:46:12;5.33;;;2.73;;
19758;SDS011;10038;42.662;23.278;2023-07-20T08:48:39;3.97;;;2.80;;
19758;SDS011;10038;42.662;23.278;2023-07-20T08:51:07;6.00;;;2.47;;
19758;SDS011;10038;42.662;23.278;2023-07-20T08:53:33;4.40;;;2.10;;
19758;SDS011;10038;42.662;23.278;2023-07-20T08:56:01;6.50;;;2.10;;
19758;SDS011;10038;42.662;23.278;2023-07-20T08:58:28;7.70;;;2.30;;
19758;SDS011;10038;42.662;23.278;2023-07-20T09:00:55;5.63;;;2.50;;
19758;SDS011;10038;42.662;23.278;2023-07-20T09:03:24;7.33;;;2.53;;
19758;SDS011;10038;42.662;23.278;2023-07-20T09:05:51;7.03;;;2.50;;
19758;SDS011;10038;42.662;23.278;2023-07-20T09:08:17;6.63;;;2.47;;
19758;SDS011;10038;42.662;23.278;2023-07-20T09:10:44;5.30;;;2.40;;
19758;SDS011;10038;42.662;23.278;2023-07-20T09:13:15;5.33;;;2.57;;
19758;SDS011;10038;42.662;23.278;2023-07-20T09:15:45;3.73;;;2.27;;
19758;SDS011;10038;42.662;23.278;2023-07-20T09:18:12;5.63;;;1.93;;
19758;SDS011;10038;42.662;23.278;2023-07-20T09:20:38;4.87;;;2.23;;
19758;SDS011;10038;42.662;23.278;2023-07-20T09:23:05;5.10;;;2.40;;
19758;SDS011;10038;42.662;23.278;2023-07-20T09:25:32;3.77;;;2.10;;
19758;SDS011;10038;42.662;23.278;2023-07-20T09:28:01;5.67;;;2.37;;
19758;SDS011;10038;42.662;23.278;2023-07-20T09:30:30;3.83;;;2.00;;
19758;SDS011;10038;42.662;23.278;2023-07-20T09:32:56;5.57;;;2.00;;
19758;SDS011;10038;42.662;23.278;2023-07-20T09:35:23;6.07;;;2.00;;
19758;SDS011;10038;42.662;23.278;2023-07-20T09:37:54;9.20;;;3.37;;
19758;SDS011;10038;42.662;23.278;2023-07-20T09:40:21;6.20;;;2.57;;
19758;SDS011;10038;42.662;23.278;2023-07-20T09:42:48;13.20;;;2.97;;
19758;SDS011;10038;42.662;23.278;2023-07-20T09:45:18;4.67;;;2.20;;
19758;SDS011;10038;42.662;23.278;2023-07-20T09:47:46;3.53;;;2.00;;
19758;SDS011;10038;42.662;23.278;2023-07-20T09:50:13;4.83;;;2.93;;
19758;SDS011;10038;42.662;23.278;2023-07-20T09:52:40;14.37;;;2.47;;
19758;SDS011;10038;42.662;23.278;2023-07-20T09:55:06;5.63;;;2.57;;
19758;SDS011;10038;42.662;23.278;2023-07-20T09:57:33;6.70;;;2.37;;
19758;SDS011;10038;42.662;23.278;2023-07-20T10:00:00;3.40;;;2.83;;
19758;SDS011;10038;42.662;23.278;2023-07-20T10:02:28;6.80;;;2.47;;
19758;SDS011;10038;42.662;23.278;2023-07-20T10:04:57;5.43;;;2.57;;
19758;SDS011;10038;42.662;23.278;2023-07-20T10:07:26;5.60;;;2.00;;
19758;SDS011;10038;42.662;23.278;2023-07-20T10:09:53;10.07;;;2.00;;
19758;SDS011;10038;42.662;23.278;2023-07-20T10:12:22;11.93;;;2.07;;
19758;SDS011;10038;42.662;23.278;2023-07-20T10:14:52;5.03;;;1.97;;
19758;SDS011;10038;42.662;23.278;2023-07-20T10:17:18;7.40;;;3.13;;
19758;SDS011;10038;42.662;23.278;2023-07-20T10:19:46;7.63;;;2.23;;
19758;SDS011;10038;42.662;23.278;2023-07-20T10:22:16;4.87;;;2.00;;
19758;SDS011;10038;42.662;23.278;2023-07-20T10:24:45;6.20;;;2.07;;
19758;SDS011;10038;42.662;23.278;2023-07-20T10:27:12;7.10;;;2.40;;
19758;SDS011;10038;42.662;23.278;2023-07-20T10:29:39;8.03;;;2.80;;
19758;SDS011;10038;42.662;23.278;2023-07-20T10:32:06;7.20;;;2.17;;
19758;SDS011;10038;42.662;23.278;2023-07-20T10:34:33;5.00;;;2.50;;
19758;SDS011;10038;42.662;23.278;2023-07-20T10:37:00;4.10;;;2.57;;
19758;SDS011;10038;42.662;23.278;2023-07-20T10:39:29;5.37;;;2.30;;
19758;SDS011;10038;42.662;23.278;2023-07-20T10:42:00;2.80;;;2.17;;
19758;SDS011;10038;42.662;23.278;2023-07-20T10:44:28;8.37;;;2.40;;
19758;SDS011;10038;42.662;23.278;2023-07-20T10:46:58;5.77;;;2.60;;
19758;SDS011;10038;42.662;23.278;2023-07-20T10:49:25;6.43;;;2.40;;
19758;SDS011;10038;42.662;23.278;2023-07-20T10:51:56;5.90;;;2.47;;
19758;SDS011;10038;42.662;23.278;2023-07-20T10:57:23;3.63;;;2.27;;
19758;SDS011;10038;42.662;23.278;2023-07-20T10:59:49;7.10;;;2.57;;
19758;SDS011;10038;42.662;23.278;2023-07-20T11:02:17;4.90;;;2.37;;
19758;SDS011;10038;42.662;23.278;2023-07-20T11:04:45;5.37;;;2.47;;
19758;SDS011;10038;42.662;23.278;2023-07-20T11:07:14;5.67;;;3.80;;
19758;SDS011;10038;42.662;23.278;2023-07-20T11:09:41;6.20;;;3.27;;
19758;SDS011;10038;42.662;23.278;2023-07-20T11:12:09;8.93;;;3.83;;
19758;SDS011;10038;42.662;23.278;2023-07-20T11:14:41;9.03;;;4.20;;
19758;SDS011;10038;42.662;23.278;2023-07-20T11:17:11;7.03;;;3.80;;
19758;SDS011;10038;42.662;23.278;2023-07-20T11:19:38;6.90;;;4.20;;
19758;SDS011;10038;42.662;23.278;2023-07-20T11:22:05;6.83;;;3.70;;
19758;SDS011;10038;42.662;23.278;2023-07-20T11:24:34;9.33;;;3.97;;
19758;SDS011;10038;42.662;23.278;2023-07-20T11:27:01;7.30;;;4.30;;
19758;SDS011;10038;42.662;23.278;2023-07-20T11:29:27;9.50;;;3.80;;
19758;SDS011;10038;42.662;23.278;2023-07-20T11:31:55;8.60;;;4.47;;
19758;SDS011;10038;42.662;23.278;2023-07-20T11:34:22;7.17;;;4.83;;
19758;SDS011;10038;42.662;23.278;2023-07-20T11:36:49;5.90;;;4.30;;
19758;SDS011;10038;42.662;23.278;2023-07-20T11:39:17;5.73;;;3.97;;
19758;SDS011;10038;42.662;23.278;2023-07-20T11:41:46;7.10;;;4.47;;
19758;SDS011;10038;42.662;23.278;2023-07-20T11:44:13;9.90;;;4.80;;
19758;SDS011;10038;42.662;23.278;2023-07-20T11:46:40;5.67;;;4.73;;
19758;SDS011;10038;42.662;23.278;2023-07-20T11:49:08;10.83;;;4.00;;
19758;SDS011;10038;42.662;23.278;2023-07-20T11:51:35;6.33;;;4.33;;
19758;SDS011;10038;42.662;23.278;2023-07-20T11:54:02;9.20;;;4.57;;
19758;SDS011;10038;42.662;23.278;2023-07-20T11:56:29;5.07;;;3.80;;
19758;SDS011;10038;42.662;23.278;2023-07-20T11:58:56;7.90;;;3.40;;
19758;SDS011;10038;42.662;23.278;2023-07-20T12:01:24;5.67;;;3.60;;
19758;SDS011;10038;42.662;23.278;2023-07-20T12:03:54;6.30;;;3.67;;
19758;SDS011;10038;42.662;23.278;2023-07-20T12:06:24;9.00;;;5.17;;
19758;SDS011;10038;42.662;23.278;2023-07-20T12:08:53;5.73;;;4.30;;
19758;SDS011;10038;42.662;23.278;2023-07-20T12:11:31;6.90;;;3.37;;
19758;SDS011;10038;42.662;23.278;2023-07-20T12:13:58;8.93;;;3.57;;
19758;SDS011;10038;42.662;23.278;2023-07-20T12:16:26;5.37;;;2.60;;
19758;SDS011;10038;42.662;23.278;2023-07-20T12:18:58;6.53;;;3.20;;
19758;SDS011;10038;42.662;23.278;2023-07-20T12:21:26;4.80;;;3.00;;
19758;SDS011;10038;42.662;23.278;2023-07-20T12:23:55;12.23;;;2.87;;
19758;SDS011;10038;42.662;23.278;2023-07-20T12:26:22;5.20;;;3.10;;
19758;SDS011;10038;42.662;23.278;2023-07-20T12:28:49;5.17;;;2.80;;
19758;SDS011;10038;42.662;23.278;2023-07-20T12:31:16;5.33;;;3.00;;
19758;SDS011;10038;42.662;23.278;2023-07-20T12:33:42;4.27;;;2.60;;
19758;SDS011;10038;42.662;23.278;2023-07-20T12:36:09;9.33;;;2.70;;
19758;SDS011;10038;42.662;23.278;2023-07-20T12:38:37;7.60;;;3.70;;
19758;SDS011;10038;42.662;23.278;2023-07-20T12:41:07;5.13;;;2.63;;
19758;SDS011;10038;42.662;23.278;2023-07-20T12:43:34;4.80;;;2.30;;
19758;SDS011;10038;42.662;23.278;2023-07-20T12:46:00;4.63;;;2.63;;
19758;SDS011;10038;42.662;23.278;2023-07-20T12:48:27;7.37;;;2.70;;
19758;SDS011;10038;42.662;23.278;2023-07-20T12:50:54;6.87;;;2.87;;
19758;SDS011;10038;42.662;23.278;2023-07-20T12:53:20;7.80;;;3.10;;
19758;SDS011;10038;42.662;23.278;2023-07-20T12:55:48;6.30;;;2.40;;
19758;SDS011;10038;42.662;23.278;2023-07-20T12:58:15;7.97;;;2.47;;
19758;SDS011;10038;42.662;23.278;2023-07-20T13:00:42;8.80;;;3.53;;
19758;SDS011;10038;42.662;23.278;2023-07-20T13:03:08;10.17;;;2.87;;
19758;SDS011;10038;42.662;23.278;2023-07-20T13:05:35;6.27;;;2.57;;
19758;SDS011;10038;42.662;23.278;2023-07-20T13:08:14;6.03;;;2.43;;
19758;SDS011;10038;42.662;23.278;2023-07-20T13:10:40;6.10;;;2.40;;
19758;SDS011;10038;42.662;23.278;2023-07-20T13:13:09;6.67;;;2.20;;
19758;SDS011;10038;42.662;23.278;2023-07-20T13:15:40;5.43;;;4.00;;
19758;SDS011;10038;42.662;23.278;2023-07-20T13:18:07;5.87;;;2.30;;
19758;SDS011;10038;42.662;23.278;2023-07-20T13:20:34;2.93;;;2.33;;
19758;SDS011;10038;42.662;23.278;2023-07-20T13:23:00;8.37;;;2.77;;
19758;SDS011;10038;42.662;23.278;2023-07-20T13:25:27;5.13;;;2.77;;
19758;SDS011;10038;42.662;23.278;2023-07-20T13:27:53;10.27;;;2.90;;
19758;SDS011;10038;42.662;23.278;2023-07-20T13:30:21;4.07;;;2.33;;
19758;SDS011;10038;42.662;23.278;2023-07-20T13:32:48;5.70;;;2.60;;
19758;SDS011;10038;42.662;23.278;2023-07-20T13:35:14;6.07;;;2.57;;
19758;SDS011;10038;42.662;23.278;2023-07-20T13:37:41;8.90;;;2.93;;
19758;SDS011;10038;42.662;23.278;2023-07-20T13:40:08;7.53;;;2.80;;
19758;SDS011;10038;42.662;23.278;2023-07-20T13:42:38;5.50;;;2.20;;
19758;SDS011;10038;42.662;23.278;2023-07-20T13:45:05;7.70;;;3.00;;
19758;SDS011;10038;42.662;23.278;2023-07-20T13:47:34;5.63;;;2.60;;
19758;SDS011;10038;42.662;23.278;2023-07-20T13:50:00;10.13;;;2.67;;
19758;SDS011;10038;42.662;23.278;2023-07-20T13:52:27;7.60;;;2.47;;
19758;SDS011;10038;42.662;23.278;2023-07-20T13:54:53;4.50;;;2.40;;
19758;SDS011;10038;42.662;23.278;2023-07-20T13:57:20;6.93;;;2.40;;
19758;SDS011;10038;42.662;23.278;2023-07-20T13:59:47;7.87;;;2.87;;
19758;SDS011;10038;42.662;23.278;2023-07-20T14:02:13;5.83;;;2.20;;
19758;SDS011;10038;42.662;23.278;2023-07-20T14:04:41;9.93;;;2.80;;
19758;SDS011;10038;42.662;23.278;2023-07-20T14:07:08;8.03;;;2.50;;
19758;SDS011;10038;42.662;23.278;2023-07-20T14:09:35;5.80;;;2.30;;
19758;SDS011;10038;42.662;23.278;2023-07-20T14:12:01;7.27;;;2.57;;
19758;SDS011;10038;42.662;23.278;2023-07-20T14:14:28;8.40;;;2.97;;
19758;SDS011;10038;42.662;23.278;2023-07-20T14:16:54;5.13;;;2.23;;
19758;SDS011;10038;42.662;23.278;2023-07-20T14:19:22;11.30;;;2.47;;
19758;SDS011;10038;42.662;23.278;2023-07-20T14:21:51;5.00;;;1.83;;
19758;SDS011;10038;42.662;23.278;2023-07-20T14:24:18;10.23;;;2.40;;
19758;SDS011;10038;42.662;23.278;2023-07-20T14:26:44;4.90;;;2.50;;
19758;SDS011;10038;42.662;23.278;2023-07-20T14:29:12;5.43;;;2.70;;
19758;SDS011;10038;42.662;23.278;2023-07-20T14:31:39;8.00;;;2.57;;
19758;SDS011;10038;42.662;23.278;2023-07-20T14:34:05;6.53;;;2.30;;
19758;SDS011;10038;42.662;23.278;2023-07-20T14:36:32;6.13;;;3.00;;
19758;SDS011;10038;42.662;23.278;2023-07-20T14:39:00;6.07;;;2.30;;
19758;SDS011;10038;42.662;23.278;2023-07-20T14:41:26;12.30;;;3.23;;